createdAt,value
2022-08-23T00:02:23.547Z,20.81
2022-08-23T00:07:28.076Z,20.79
2022-08-23T00:12:33.949Z,20.75
2022-08-23T00:17:36.829Z,20.83
2022-08-23T00:22:40.840Z,20.94
2022-08-23T00:27:45.507Z,20.78
2022-08-23T00:32:48.674Z,20.77
2022-08-23T00:38:31.744Z,20.79
2022-08-23T00:43:35.609Z,20.76
2022-08-23T00:48:40.517Z,20.92
2022-08-23T00:53:47.551Z,20.76
2022-08-23T00:58:51.936Z,20.82
2022-08-23T01:04:04.459Z,20.69
2022-08-23T01:09:12.189Z,20.64
2022-08-23T01:14:20.948Z,20.59
2022-08-23T01:19:31.695Z,20.61
2022-08-23T01:24:59.588Z,20.56
2022-08-23T01:30:05.830Z,20.58
2022-08-23T01:35:09.501Z,20.66
2022-08-23T01:40:14.399Z,20.58
2022-08-23T01:45:17.838Z,20.73
2022-08-23T01:50:21.260Z,20.70
2022-08-23T01:55:25.963Z,20.59
2022-08-23T02:00:32.823Z,20.50
2022-08-23T02:05:37.253Z,20.57
2022-08-23T02:10:41.750Z,20.58
2022-08-23T02:15:45.620Z,20.46
2022-08-23T02:20:50.940Z,20.40
2022-08-23T02:25:55.988Z,20.26
2022-08-23T02:30:58.861Z,20.20
2022-08-23T02:36:02.924Z,20.16
2022-08-23T02:41:07.753Z,20.29
2022-08-23T02:46:10.933Z,20.39
2022-08-23T02:51:14.252Z,20.25
2022-08-23T02:56:21.842Z,20.25
2022-08-23T03:01:28.546Z,20.22
2022-08-23T03:06:35.717Z,20.18
2022-08-23T03:11:45.920Z,20.19
2022-08-23T03:16:49.341Z,20.12
2022-08-23T03:21:52.112Z,20.14
2022-08-23T03:26:58.891Z,20.16
2022-08-23T03:32:02.328Z,20.13
2022-08-23T03:37:08.704Z,20.07
2022-08-23T03:42:13.738Z,20.20
2022-08-23T03:47:17.393Z,20.13
2022-08-23T03:52:22.100Z,20.15
2022-08-23T03:57:26.644Z,20.18
2022-08-23T04:02:29.432Z,20.11
2022-08-23T04:07:32.380Z,20.15
2022-08-23T04:12:36.952Z,20.10
2022-08-23T04:17:42.569Z,20.08
2022-08-23T04:22:46.192Z,20.09
2022-08-23T04:27:53.018Z,20.03
2022-08-23T04:32:55.889Z,19.96
2022-08-23T04:37:59.960Z,19.89
2022-08-23T04:43:05.034Z,19.79
2022-08-23T04:48:10.953Z,19.75
2022-08-23T04:53:19.120Z,19.65
2022-08-23T04:58:38.531Z,19.58
2022-08-23T05:03:41.616Z,19.46
2022-08-23T05:08:44.659Z,19.40
2022-08-23T05:13:49.773Z,19.48
2022-08-23T05:18:52.981Z,19.44
2022-08-23T05:23:55.837Z,19.40
2022-08-23T05:29:03.091Z,19.34
2022-08-23T05:34:11.628Z,19.45
2022-08-23T05:39:36.672Z,19.46
2022-08-23T05:44:45.786Z,19.51
2022-08-23T05:49:50.154Z,19.55
2022-08-23T05:54:53.631Z,19.50
2022-08-23T06:00:20.972Z,19.69
2022-08-23T06:05:28.011Z,20.09
2022-08-23T06:10:32.379Z,20.32
2022-08-23T06:15:46.645Z,20.36
2022-08-23T06:20:49.866Z,20.45
2022-08-23T06:26:01.802Z,20.44
2022-08-23T06:31:12.029Z,20.52
2022-08-23T06:36:19.928Z,20.72
2022-08-23T06:41:42.955Z,20.89
2022-08-23T06:47:05.275Z,21.43
2022-08-23T06:52:09.495Z,21.54
2022-08-23T06:57:33.308Z,21.82
2022-08-23T07:02:56.021Z,22.07
2022-08-23T07:08:34.490Z,22.19
2022-08-23T07:13:37.814Z,22.07
2022-08-23T07:18:42.487Z,22.21
2022-08-23T07:23:46.651Z,22.71
2022-08-23T07:28:50.702Z,23.22
2022-08-23T07:33:58.791Z,23.13
2022-08-23T07:39:02.617Z,23.26
2022-08-23T07:44:08.667Z,23.65
2022-08-23T07:49:14.193Z,23.74
2022-08-23T07:54:21.324Z,23.95
2022-08-23T07:59:34.635Z,24.49
2022-08-23T08:04:53.934Z,24.60
2022-08-23T08:09:57.078Z,24.59
2022-08-23T08:15:00.577Z,24.87
2022-08-23T08:20:13.493Z,25.17
2022-08-23T08:25:38.588Z,25.01
2022-08-23T08:30:44.591Z,25.34
2022-08-23T08:35:57.594Z,25.65
2022-08-23T08:41:12.661Z,25.78
2022-08-23T08:46:23.509Z,25.70
2022-08-23T08:51:42.833Z,26.24
2022-08-23T08:56:50.759Z,26.57
2022-08-23T09:02:02.726Z,27.04
2022-08-23T09:07:23.012Z,27.71
2022-08-23T09:12:38.797Z,28.16
2022-08-23T09:17:45.429Z,28.11
2022-08-23T09:22:54.002Z,28.45
2022-08-23T09:28:06.228Z,28.16
2022-08-23T09:33:17.197Z,28.11
2022-08-23T09:38:22.079Z,28.73
2022-08-23T09:43:48.197Z,28.71
2022-08-23T09:48:55.189Z,29.41
2022-08-23T09:54:11.571Z,29.84
2022-08-23T09:59:26.934Z,29.11
2022-08-23T10:04:42.370Z,28.82
2022-08-23T10:09:48.673Z,28.22
2022-08-23T10:14:52.128Z,27.98
2022-08-23T10:20:13.836Z,27.84
2022-08-23T10:25:23.883Z,28.27
2022-08-23T10:30:37.162Z,29.02
2022-08-23T10:35:47.860Z,29.14
2022-08-23T10:41:02.969Z,29.83
2022-08-23T10:46:08.677Z,30.36
2022-08-23T10:51:22.692Z,29.98
2022-08-23T10:56:37.492Z,30.09
2022-08-23T11:01:54.342Z,31.42
2022-08-23T11:07:00.237Z,33.46
2022-08-23T11:12:21.604Z,33.01
2022-08-23T11:17:29.749Z,32.84
2022-08-23T11:22:34.314Z,33.64
2022-08-23T11:27:41.453Z,34.60
2022-08-23T11:32:50.228Z,35.22
2022-08-23T11:38:02.306Z,35.48
2022-08-23T11:43:21.493Z,34.96
2022-08-23T11:48:43.386Z,35.28
2022-08-23T11:54:35.625Z,34.76
2022-08-23T12:00:22.710Z,34.50
2022-08-23T12:06:08.278Z,34.72
2022-08-23T12:11:12.158Z,35.68
2022-08-23T12:16:38.194Z,34.73
2022-08-23T12:21:50.069Z,33.48
2022-08-23T12:27:03.745Z,34.34
2022-08-23T12:32:20.420Z,34.90
2022-08-23T12:37:33.869Z,35.39
2022-08-23T12:42:38.829Z,36.78
2022-08-23T12:47:45.400Z,35.43
2022-08-23T12:52:58.410Z,34.85
2022-08-23T12:58:02.061Z,34.60
2022-08-23T13:03:12.375Z,33.69
2022-08-23T13:08:19.149Z,33.15
2022-08-23T13:13:28.903Z,34.88
2022-08-23T13:18:42.612Z,35.29
2022-08-23T13:23:45.658Z,35.31
2022-08-23T13:29:06.161Z,34.04
2022-08-23T13:34:10.313Z,33.71
2022-08-23T13:39:14.513Z,33.45
2022-08-23T13:44:21.060Z,32.19
2022-08-23T13:49:29.388Z,32.08
2022-08-23T13:54:33.664Z,34.32
2022-08-23T13:59:40.082Z,34.89
2022-08-23T14:04:44.967Z,35.16
2022-08-23T14:09:50.115Z,36.05
2022-08-23T14:14:55.165Z,34.76
2022-08-23T14:25:22.139Z,34.46
2022-08-23T14:30:29.779Z,35.01
2022-08-23T14:35:34.064Z,35.36
2022-08-23T14:40:37.585Z,36.05
2022-08-23T14:45:40.654Z,35.92
2022-08-23T14:50:46.148Z,35.53
2022-08-23T14:56:01.114Z,35.76
2022-08-23T15:01:14.055Z,36.20
2022-08-23T15:06:20.738Z,36.02
2022-08-23T15:16:47.070Z,34.43
2022-08-23T15:21:51.250Z,34.28
2022-08-23T15:26:59.551Z,33.23
2022-08-23T15:32:02.345Z,33.03
2022-08-23T15:37:06.544Z,33.72
2022-08-23T15:42:09.552Z,33.63
2022-08-23T15:47:19.326Z,32.90
2022-08-23T15:52:23.624Z,32.54
2022-08-23T15:57:29.108Z,31.45
2022-08-23T16:02:51.074Z,31.46
2022-08-23T16:07:59.621Z,31.53
2022-08-23T16:13:03.666Z,32.39
2022-08-23T16:18:06.852Z,32.17
2022-08-23T16:23:11.422Z,31.55
2022-08-23T16:28:14.317Z,31.48
2022-08-23T16:33:17.141Z,31.59
2022-08-23T16:38:21.360Z,31.14
2022-08-23T16:43:24.139Z,31.20
2022-08-23T16:48:26.945Z,31.57
2022-08-23T16:53:31.177Z,30.90
2022-08-23T16:58:34.932Z,30.55
2022-08-23T17:03:37.870Z,30.33
2022-08-23T17:08:42.101Z,30.08
2022-08-23T17:13:45.294Z,29.78
2022-08-23T17:18:48.557Z,29.62
2022-08-23T17:23:58.579Z,29.43
2022-08-23T17:29:01.952Z,29.33
2022-08-23T17:34:04.877Z,29.35
2022-08-23T17:39:11.883Z,29.14
2022-08-23T17:44:15.308Z,28.93
2022-08-23T17:49:21.184Z,28.85
2022-08-23T17:54:25.341Z,28.67
2022-08-23T17:59:28.780Z,28.56
2022-08-23T18:04:31.941Z,28.43
2022-08-23T18:09:40.110Z,28.28
2022-08-23T18:14:51.938Z,28.15
2022-08-23T18:19:54.941Z,27.92
2022-08-23T18:24:59.099Z,27.58
2022-08-23T18:30:01.921Z,27.43
2022-08-23T18:35:06.251Z,27.21
2022-08-23T18:40:12.128Z,27.03
2022-08-23T18:45:15.060Z,26.90
2022-08-23T18:50:19.530Z,26.65
2022-08-23T18:55:23.870Z,26.53
2022-08-23T19:00:26.675Z,26.48
2022-08-23T19:05:42.147Z,26.35
2022-08-23T19:10:47.408Z,26.23
2022-08-23T19:15:52.497Z,26.17
2022-08-23T19:20:55.814Z,26.10
2022-08-23T19:26:00.432Z,25.91
2022-08-23T19:31:03.209Z,25.90
2022-08-23T19:36:06.552Z,25.83
2022-08-23T19:41:10.804Z,25.82
2022-08-23T19:46:16.123Z,25.68
2022-08-23T19:51:20.865Z,25.74
2022-08-23T19:56:25.033Z,25.67
2022-08-23T20:01:30.177Z,25.63
2022-08-23T20:06:34.357Z,25.50
2022-08-23T20:11:39.645Z,25.43
2022-08-23T20:16:43.052Z,25.19
2022-08-23T20:21:45.876Z,24.97
2022-08-23T20:26:50.956Z,24.93
2022-08-23T20:31:56.302Z,24.73
2022-08-23T20:36:59.146Z,24.54
2022-08-23T20:42:03.535Z,24.53
2022-08-23T20:47:11.279Z,24.40
2022-08-23T20:52:14.228Z,24.36
2022-08-23T20:57:18.525Z,24.26
2022-08-23T21:02:21.374Z,24.04
2022-08-23T21:07:24.174Z,23.87
2022-08-23T21:12:32.368Z,23.77
2022-08-23T21:17:35.315Z,23.63
2022-08-23T21:22:38.171Z,23.49
2022-08-23T21:27:42.410Z,23.46
2022-08-23T21:32:45.504Z,23.40
2022-08-23T21:37:48.373Z,23.30
2022-08-23T21:42:52.685Z,23.23
2022-08-23T21:47:55.671Z,23.17
2022-08-23T21:52:58.738Z,23.09
2022-08-23T21:58:02.910Z,23.00
2022-08-23T22:03:06.709Z,22.97
2022-08-23T22:08:10.247Z,22.96
2022-08-23T22:13:18.463Z,22.88
2022-08-23T22:18:21.316Z,22.81
2022-08-23T22:23:24.102Z,22.78
2022-08-23T22:28:31.329Z,22.69
2022-08-23T22:33:35.524Z,22.59
2022-08-23T22:38:39.704Z,22.54
2022-08-23T22:43:44.088Z,22.47
2022-08-23T22:48:48.210Z,22.36
2022-08-23T22:53:53.459Z,22.24
2022-08-23T22:58:58.638Z,22.23
2022-08-23T23:04:03.361Z,22.22
2022-08-23T23:09:07.935Z,22.20
2022-08-23T23:14:16.173Z,22.09
2022-08-23T23:19:36.584Z,22.05
2022-08-23T23:24:41.009Z,21.96
2022-08-23T23:29:45.182Z,21.89
2022-08-23T23:34:48.318Z,21.85
2022-08-23T23:39:51.187Z,21.80
2022-08-23T23:44:55.339Z,21.67
2022-08-23T23:49:58.557Z,21.62
2022-08-23T23:55:03.157Z,21.61
